Airfield :
LOGIN :

Register | Disclaimer

   EN    FR    IT 

 










Legend :    VFR   Marginal VFR   IFR   Intensive IFR   Very Intensive IFR
Visi :
Ceiling :
>= 8 km
>= 3000ft
5 to 8 km
1000 to 3000 ft
1500m to 5 km
500 to 1000 ft
800 to 1500m
200 to 500 ft
< 800m
< 200 ft
Symbols :   Thunderstorms  Fog  Heavy snow  Heavy precipitations  Wind > 20 kt
SIGMETs :     Misc.  Thunderstorms  Icing  Turbulence  Mountain Waves  Volcanic Ashes







- Airport Elevation : 468 ft
- IATA code : GRO


LEGE - Girona Costa Brava

CURRENT METAR :
  • 221630Z 31003KT 270V340 9999 SCT075 08/M00 Q1006

EXPIRED METARs :
  • 221530Z 22006KT CAVOK 09/M00 Q1007
  • 221500Z 22009KT 200V260 CAVOK 09/M00 Q1007
  • 221430Z 20010KT CAVOK 10/00 Q1007

TAF TAF LEGE
Valid from the 22 at 12:00 until the 23 at 12:00 UTC


221100Z 2212/2312 18010KT 9999 FEW030 TX12/2213Z TN00/2307Z
BECMG 2216/2218 VRB04KT
PROB30
TEMPO 2222/2301 3000 BR
TEMPO 2308/2312 4000 RA BKN025
No reported NOTAMs for that airfield.
2 SIGMETs reported for the Barcelona FIR (LECB) :
 
Severe mountain waves
LECB SIGMET 9 VALID 221700/222100 LEVA
LECB BARCELONA FIR/UIR SEV MTW FCST WI N4010 W00130 - N4110 E00020 - N41 E001 - N4010 W00050 - N4010 W00130 SFC/FL360 STNR NC=
Severe mountain waves
LECB SIGMET 8 VALID 221700/222100 LEVA
LECB BARCELONA FIR/UIR SEV MTW FCST WI N3830 W00130 - N39 W00030 - N3840 W00010 - N38 W00130 - N3830 W00130 SFC/FL360 STNR NC=



MET'MAP, your aeronautical weather chart ! - Copyright ORBIFLY December 2007 - Disclaimer

ORBIFLY MET'MAP TEAM :

Programming & Development : Alexandra Zaïnal
Concept & Development : Baudouin d'Aumeries
Co-Development & Prog : Marc-Olivier Méhu
Technical & hardware support : Manuel Goepfert

Contact : metmap@orbifly.com




SOURCES & CREDITS :

   NOAA